sensor_id;sensor_type;location;lat;lon;timestamp;pressure;altitude;pressure_sealevel;temperature;humidity
35577;BME280;21680;52.400;16.920;2024-01-10T00:02:18;102739.61;;;-7.61;70.36
35577;BME280;21680;52.400;16.920;2024-01-10T00:04:45;102730.02;;;-7.65;70.58
35577;BME280;21680;52.400;16.920;2024-01-10T00:07:10;102729.23;;;-7.66;70.56
35577;BME280;21680;52.400;16.920;2024-01-10T00:09:36;102727.15;;;-7.66;70.61
35577;BME280;21680;52.400;16.920;2024-01-10T00:12:01;102720.65;;;-7.67;70.54
35577;BME280;21680;52.400;16.920;2024-01-10T00:14:27;102717.42;;;-7.66;70.73
35577;BME280;21680;52.400;16.920;2024-01-10T00:16:52;102709.87;;;-7.65;70.62
35577;BME280;21680;52.400;16.920;2024-01-10T00:19:17;102708.23;;;-7.60;70.67
35577;BME280;21680;52.400;16.920;2024-01-10T00:21:43;102710.09;;;-7.56;70.70
35577;BME280;21680;52.400;16.920;2024-01-10T00:24:08;102704.39;;;-7.58;70.74
35577;BME280;21680;52.400;16.920;2024-01-10T00:26:33;102709.35;;;-7.54;70.56
35577;BME280;21680;52.400;16.920;2024-01-10T00:28:59;102709.02;;;-7.54;70.81
35577;BME280;21680;52.400;16.920;2024-01-10T00:31:27;102704.76;;;-7.53;70.86
35577;BME280;21680;52.400;16.920;2024-01-10T00:33:55;102699.50;;;-7.50;70.83
35577;BME280;21680;52.400;16.920;2024-01-10T00:36:20;102700.23;;;-7.47;70.84
35577;BME280;21680;52.400;16.920;2024-01-10T00:38:50;102701.52;;;-7.42;70.79
35577;BME280;21680;52.400;16.920;2024-01-10T00:41:15;102697.66;;;-7.41;70.95
35577;BME280;21680;52.400;16.920;2024-01-10T00:43:42;102695.58;;;-7.40;70.71
35577;BME280;21680;52.400;16.920;2024-01-10T00:46:09;102697.73;;;-7.42;70.97
35577;BME280;21680;52.400;16.920;2024-01-10T00:48:34;102695.77;;;-7.46;70.80
35577;BME280;21680;52.400;16.920;2024-01-10T00:51:00;102691.77;;;-7.52;70.92
35577;BME280;21680;52.400;16.920;2024-01-10T00:53:34;102691.30;;;-7.56;70.85
35577;BME280;21680;52.400;16.920;2024-01-10T00:56:01;102690.05;;;-7.60;70.96
35577;BME280;21680;52.400;16.920;2024-01-10T00:58:26;102694.95;;;-7.65;70.90
35577;BME280;21680;52.400;16.920;2024-01-10T01:00:51;102692.48;;;-7.68;70.74
35577;BME280;21680;52.400;16.920;2024-01-10T01:03:17;102690.94;;;-7.70;70.87
35577;BME280;21680;52.400;16.920;2024-01-10T01:05:42;102696.95;;;-7.71;70.80
35577;BME280;21680;52.400;16.920;2024-01-10T01:08:07;102697.89;;;-7.73;71.10
35577;BME280;21680;52.400;16.920;2024-01-10T01:10:33;102699.08;;;-7.76;70.79
35577;BME280;21680;52.400;16.920;2024-01-10T01:12:59;102702.53;;;-7.82;70.82
35577;BME280;21680;52.400;16.920;2024-01-10T01:15:24;102705.48;;;-7.85;70.81
35577;BME280;21680;52.400;16.920;2024-01-10T01:17:49;102701.66;;;-7.85;70.76
35577;BME280;21680;52.400;16.920;2024-01-10T01:20:17;102701.81;;;-7.86;70.97
35577;BME280;21680;52.400;16.920;2024-01-10T01:22:42;102698.73;;;-7.85;71.03
35577;BME280;21680;52.400;16.920;2024-01-10T01:25:08;102704.20;;;-7.83;70.93
35577;BME280;21680;52.400;16.920;2024-01-10T01:27:34;102707.27;;;-7.84;71.11
35577;BME280;21680;52.400;16.920;2024-01-10T01:29:59;102708.92;;;-7.83;70.98
35577;BME280;21680;52.400;16.920;2024-01-10T01:32:24;102710.90;;;-7.82;71.01
35577;BME280;21680;52.400;16.920;2024-01-10T01:34:49;102707.19;;;-7.80;71.05
35577;BME280;21680;52.400;16.920;2024-01-10T01:37:15;102703.98;;;-7.75;71.36
35577;BME280;21680;52.400;16.920;2024-01-10T01:39:40;102702.84;;;-7.72;70.98
35577;BME280;21680;52.400;16.920;2024-01-10T01:42:05;102702.59;;;-7.70;71.13
35577;BME280;21680;52.400;16.920;2024-01-10T01:44:31;102706.65;;;-7.69;71.32
35577;BME280;21680;52.400;16.920;2024-01-10T01:46:57;102700.46;;;-7.68;71.35
35577;BME280;21680;52.400;16.920;2024-01-10T01:49:25;102700.29;;;-7.68;71.34
35577;BME280;21680;52.400;16.920;2024-01-10T01:51:52;102694.05;;;-7.68;71.31
35577;BME280;21680;52.400;16.920;2024-01-10T01:54:20;102698.05;;;-7.65;71.35
35577;BME280;21680;52.400;16.920;2024-01-10T01:56:46;102704.43;;;-7.63;71.30
35577;BME280;21680;52.400;16.920;2024-01-10T01:59:16;102707.55;;;-7.63;71.32
35577;BME280;21680;52.400;16.920;2024-01-10T02:01:45;102706.92;;;-7.62;71.49
35577;BME280;21680;52.400;16.920;2024-01-10T02:04:11;102702.76;;;-7.62;71.33
35577;BME280;21680;52.400;16.920;2024-01-10T02:06:36;102701.64;;;-7.63;71.31
35577;BME280;21680;52.400;16.920;2024-01-10T02:09:02;102699.86;;;-7.64;71.24
35577;BME280;21680;52.400;16.920;2024-01-10T02:11:28;102699.07;;;-7.63;71.31
35577;BME280;21680;52.400;16.920;2024-01-10T02:13:54;102692.94;;;-7.61;71.21
35577;BME280;21680;52.400;16.920;2024-01-10T02:16:23;102688.10;;;-7.61;71.51
35577;BME280;21680;52.400;16.920;2024-01-10T02:18:49;102682.13;;;-7.62;71.61
35577;BME280;21680;52.400;16.920;2024-01-10T02:21:16;102681.28;;;-7.61;71.49
35577;BME280;21680;52.400;16.920;2024-01-10T02:23:41;102675.09;;;-7.60;71.50
35577;BME280;21680;52.400;16.920;2024-01-10T02:26:07;102673.69;;;-7.61;71.63
35577;BME280;21680;52.400;16.920;2024-01-10T02:28:32;102670.58;;;-7.60;71.60
35577;BME280;21680;52.400;16.920;2024-01-10T02:30:58;102668.61;;;-7.61;71.66
35577;BME280;21680;52.400;16.920;2024-01-10T02:33:24;102666.45;;;-7.65;71.49
35577;BME280;21680;52.400;16.920;2024-01-10T02:35:51;102664.77;;;-7.67;71.52
35577;BME280;21680;52.400;16.920;2024-01-10T02:38:16;102661.69;;;-7.66;71.57
35577;BME280;21680;52.400;16.920;2024-01-10T02:40:45;102658.59;;;-7.66;71.63
35577;BME280;21680;52.400;16.920;2024-01-10T02:43:10;102658.74;;;-7.66;71.57
35577;BME280;21680;52.400;16.920;2024-01-10T02:45:35;102655.17;;;-7.65;71.64
35577;BME280;21680;52.400;16.920;2024-01-10T02:48:01;102652.97;;;-7.64;71.72
35577;BME280;21680;52.400;16.920;2024-01-10T02:50:26;102651.77;;;-7.64;71.88
35577;BME280;21680;52.400;16.920;2024-01-10T02:52:51;102651.77;;;-7.64;71.68
35577;BME280;21680;52.400;16.920;2024-01-10T02:55:16;102652.89;;;-7.63;71.74
35577;BME280;21680;52.400;16.920;2024-01-10T02:57:42;102650.96;;;-7.63;71.59
35577;BME280;21680;52.400;16.920;2024-01-10T03:00:07;102653.29;;;-7.65;71.74
35577;BME280;21680;52.400;16.920;2024-01-10T03:02:33;102659.77;;;-7.67;71.65
35577;BME280;21680;52.400;16.920;2024-01-10T03:04:58;102656.51;;;-7.69;71.51
35577;BME280;21680;52.400;16.920;2024-01-10T03:07:23;102658.09;;;-7.74;71.71
35577;BME280;21680;52.400;16.920;2024-01-10T03:09:50;102653.38;;;-7.77;71.89
35577;BME280;21680;52.400;16.920;2024-01-10T03:12:15;102649.76;;;-7.80;71.80
35577;BME280;21680;52.400;16.920;2024-01-10T03:14:41;102650.61;;;-7.80;71.68
35577;BME280;21680;52.400;16.920;2024-01-10T03:17:06;102649.10;;;-7.79;71.83
35577;BME280;21680;52.400;16.920;2024-01-10T03:19:31;102649.02;;;-7.81;71.89
35577;BME280;21680;52.400;16.920;2024-01-10T03:21:56;102648.46;;;-7.81;71.88
35577;BME280;21680;52.400;16.920;2024-01-10T03:24:21;102651.38;;;-7.82;71.79
35577;BME280;21680;52.400;16.920;2024-01-10T03:26:49;102655.20;;;-7.82;71.74
35577;BME280;21680;52.400;16.920;2024-01-10T03:29:14;102656.66;;;-7.83;71.79
35577;BME280;21680;52.400;16.920;2024-01-10T03:31:39;102657.73;;;-7.85;71.74
35577;BME280;21680;52.400;16.920;2024-01-10T03:34:05;102657.07;;;-7.88;71.88
35577;BME280;21680;52.400;16.920;2024-01-10T03:36:30;102652.53;;;-7.88;71.95
35577;BME280;21680;52.400;16.920;2024-01-10T03:38:55;102654.50;;;-7.88;71.99
35577;BME280;21680;52.400;16.920;2024-01-10T03:41:20;102652.44;;;-7.84;71.99
35577;BME280;21680;52.400;16.920;2024-01-10T03:43:46;102648.79;;;-7.81;71.98
35577;BME280;21680;52.400;16.920;2024-01-10T03:46:12;102644.50;;;-7.81;71.92
35577;BME280;21680;52.400;16.920;2024-01-10T03:48:38;102642.77;;;-7.83;71.98
35577;BME280;21680;52.400;16.920;2024-01-10T03:51:07;102644.30;;;-7.87;71.92
35577;BME280;21680;52.400;16.920;2024-01-10T03:53:32;102646.34;;;-7.88;71.98
35577;BME280;21680;52.400;16.920;2024-01-10T03:55:58;102644.58;;;-7.88;72.08
35577;BME280;21680;52.400;16.920;2024-01-10T03:58:23;102644.05;;;-7.91;71.88
35577;BME280;21680;52.400;16.920;2024-01-10T04:00:48;102648.11;;;-7.90;72.15
35577;BME280;21680;52.400;16.920;2024-01-10T04:03:13;102646.02;;;-7.87;72.10
35577;BME280;21680;52.400;16.920;2024-01-10T04:05:39;102639.56;;;-7.85;71.98
35577;BME280;21680;52.400;16.920;2024-01-10T04:08:04;102641.33;;;-7.84;72.15
35577;BME280;21680;52.400;16.920;2024-01-10T04:10:31;102638.28;;;-7.83;72.11
35577;BME280;21680;52.400;16.920;2024-01-10T04:12:57;102638.66;;;-7.82;71.96
35577;BME280;21680;52.400;16.920;2024-01-10T04:15:23;102632.81;;;-7.81;72.12
35577;BME280;21680;52.400;16.920;2024-01-10T04:17:48;102629.23;;;-7.81;72.25
35577;BME280;21680;52.400;16.920;2024-01-10T04:20:13;102628.55;;;-7.80;71.93
35577;BME280;21680;52.400;16.920;2024-01-10T04:22:38;102631.73;;;-7.82;71.97
35577;BME280;21680;52.400;16.920;2024-01-10T04:25:06;102624.42;;;-7.82;72.03
35577;BME280;21680;52.400;16.920;2024-01-10T04:27:32;102622.80;;;-7.83;72.09
35577;BME280;21680;52.400;16.920;2024-01-10T04:29:58;102622.83;;;-7.83;72.16
35577;BME280;21680;52.400;16.920;2024-01-10T04:32:23;102621.84;;;-7.82;72.24
35577;BME280;21680;52.400;16.920;2024-01-10T04:34:48;102623.68;;;-7.80;72.29
35577;BME280;21680;52.400;16.920;2024-01-10T04:37:13;102623.95;;;-7.79;72.46
35577;BME280;21680;52.400;16.920;2024-01-10T04:39:39;102623.52;;;-7.77;72.16
35577;BME280;21680;52.400;16.920;2024-01-10T04:42:05;102623.34;;;-7.77;72.31
35577;BME280;21680;52.400;16.920;2024-01-10T04:44:30;102626.31;;;-7.77;72.19
35577;BME280;21680;52.400;16.920;2024-01-10T04:46:57;102624.91;;;-7.77;72.19
35577;BME280;21680;52.400;16.920;2024-01-10T04:49:22;102620.54;;;-7.77;72.21
35577;BME280;21680;52.400;16.920;2024-01-10T04:51:48;102619.50;;;-7.78;72.28
35577;BME280;21680;52.400;16.920;2024-01-10T04:54:13;102615.89;;;-7.77;72.28
35577;BME280;21680;52.400;16.920;2024-01-10T04:56:39;102613.04;;;-7.76;72.32
35577;BME280;21680;52.400;16.920;2024-01-10T04:59:04;102615.54;;;-7.74;72.33
35577;BME280;21680;52.400;16.920;2024-01-10T05:01:30;102612.95;;;-7.74;72.29
35577;BME280;21680;52.400;16.920;2024-01-10T05:03:56;102613.45;;;-7.74;72.37
35577;BME280;21680;52.400;16.920;2024-01-10T05:06:21;102611.23;;;-7.76;72.25
35577;BME280;21680;52.400;16.920;2024-01-10T05:08:47;102607.60;;;-7.79;72.18
35577;BME280;21680;52.400;16.920;2024-01-10T05:11:13;102607.39;;;-7.80;72.24
35577;BME280;21680;52.400;16.920;2024-01-10T05:13:40;102608.08;;;-7.80;72.26
35577;BME280;21680;52.400;16.920;2024-01-10T05:16:06;102605.75;;;-7.82;72.33
35577;BME280;21680;52.400;16.920;2024-01-10T05:18:32;102606.50;;;-7.81;72.28
35577;BME280;21680;52.400;16.920;2024-01-10T05:20:58;102609.50;;;-7.79;72.30
35577;BME280;21680;52.400;16.920;2024-01-10T05:23:24;102601.88;;;-7.79;72.37
35577;BME280;21680;52.400;16.920;2024-01-10T05:25:49;102601.30;;;-7.77;72.38
35577;BME280;21680;52.400;16.920;2024-01-10T05:28:15;102596.89;;;-7.75;72.33
35577;BME280;21680;52.400;16.920;2024-01-10T05:30:41;102589.38;;;-7.74;72.37
35577;BME280;21680;52.400;16.920;2024-01-10T05:33:08;102591.38;;;-7.72;72.50
35577;BME280;21680;52.400;16.920;2024-01-10T05:35:34;102592.93;;;-7.70;72.35
35577;BME280;21680;52.400;16.920;2024-01-10T05:38:01;102596.74;;;-7.67;72.55
35577;BME280;21680;52.400;16.920;2024-01-10T05:40:27;102595.84;;;-7.65;72.53
35577;BME280;21680;52.400;16.920;2024-01-10T05:42:55;102598.17;;;-7.64;72.38
35577;BME280;21680;52.400;16.920;2024-01-10T05:45:20;102592.20;;;-7.64;72.52
35577;BME280;21680;52.400;16.920;2024-01-10T05:47:45;102597.94;;;-7.65;72.48
35577;BME280;21680;52.400;16.920;2024-01-10T05:50:13;102598.81;;;-7.64;72.44
35577;BME280;21680;52.400;16.920;2024-01-10T05:52:38;102605.75;;;-7.65;72.41
35577;BME280;21680;52.400;16.920;2024-01-10T05:55:03;102606.56;;;-7.63;72.53
35577;BME280;21680;52.400;16.920;2024-01-10T05:57:29;102600.90;;;-7.59;72.46
35577;BME280;21680;52.400;16.920;2024-01-10T05:59:55;102603.89;;;-7.61;72.38
35577;BME280;21680;52.400;16.920;2024-01-10T06:02:23;102602.77;;;-7.62;72.55
35577;BME280;21680;52.400;16.920;2024-01-10T06:04:49;102593.66;;;-7.63;72.32
35577;BME280;21680;52.400;16.920;2024-01-10T06:07:14;102593.58;;;-7.68;72.38
35577;BME280;21680;52.400;16.920;2024-01-10T06:09:40;102602.20;;;-7.74;72.05
35577;BME280;21680;52.400;16.920;2024-01-10T06:12:06;102601.64;;;-7.80;72.27
35577;BME280;21680;52.400;16.920;2024-01-10T06:14:32;102600.36;;;-7.85;72.58
35577;BME280;21680;52.400;16.920;2024-01-10T06:16:57;102598.71;;;-7.86;72.44
35577;BME280;21680;52.400;16.920;2024-01-10T06:19:25;102591.40;;;-7.86;72.46
35577;BME280;21680;52.400;16.920;2024-01-10T06:21:50;102593.31;;;-7.89;72.50
35577;BME280;21680;52.400;16.920;2024-01-10T06:24:17;102589.94;;;-7.91;72.40
35577;BME280;21680;52.400;16.920;2024-01-10T06:26:42;102589.26;;;-7.90;72.55
35577;BME280;21680;52.400;16.920;2024-01-10T06:29:09;102585.59;;;-7.91;72.63
35577;BME280;21680;52.400;16.920;2024-01-10T06:31:34;102585.23;;;-7.91;72.40
35577;BME280;21680;52.400;16.920;2024-01-10T06:33:59;102590.62;;;-7.91;72.49
35577;BME280;21680;52.400;16.920;2024-01-10T06:36:25;102594.46;;;-7.90;72.60
35577;BME280;21680;52.400;16.920;2024-01-10T06:38:50;102595.38;;;-7.90;72.32
35577;BME280;21680;52.400;16.920;2024-01-10T06:41:15;102595.36;;;-7.90;72.43
35577;BME280;21680;52.400;16.920;2024-01-10T06:43:41;102587.55;;;-7.90;72.46
35577;BME280;21680;52.400;16.920;2024-01-10T06:46:06;102583.34;;;-7.88;72.56
35577;BME280;21680;52.400;16.920;2024-01-10T06:48:32;102587.42;;;-7.86;72.41
35577;BME280;21680;52.400;16.920;2024-01-10T06:50:58;102591.70;;;-7.87;72.59
35577;BME280;21680;52.400;16.920;2024-01-10T06:53:23;102590.06;;;-7.88;72.49
35577;BME280;21680;52.400;16.920;2024-01-10T06:55:49;102583.25;;;-7.92;72.58
35577;BME280;21680;52.400;16.920;2024-01-10T06:58:14;102586.11;;;-7.91;72.38
35577;BME280;21680;52.400;16.920;2024-01-10T07:00:39;102583.34;;;-7.90;72.53
35577;BME280;21680;52.400;16.920;2024-01-10T07:03:05;102580.78;;;-7.90;72.60
35577;BME280;21680;52.400;16.920;2024-01-10T07:05:32;102576.02;;;-7.91;72.66
35577;BME280;21680;52.400;16.920;2024-01-10T07:07:58;102579.73;;;-7.90;72.58
35577;BME280;21680;52.400;16.920;2024-01-10T07:10:24;102581.03;;;-7.91;72.47
35577;BME280;21680;52.400;16.920;2024-01-10T07:12:53;102575.79;;;-7.92;72.69
35577;BME280;21680;52.400;16.920;2024-01-10T07:15:18;102571.98;;;-7.92;72.56
35577;BME280;21680;52.400;16.920;2024-01-10T07:17:43;102570.67;;;-7.91;72.51
35577;BME280;21680;52.400;16.920;2024-01-10T07:20:09;102575.98;;;-7.89;72.77
35577;BME280;21680;52.400;16.920;2024-01-10T07:22:37;102576.23;;;-7.88;72.74
35577;BME280;21680;52.400;16.920;2024-01-10T07:25:04;102573.83;;;-7.84;72.89
35577;BME280;21680;52.400;16.920;2024-01-10T07:27:31;102567.52;;;-7.83;72.64
35577;BME280;21680;52.400;16.920;2024-01-10T07:29:56;102564.35;;;-7.80;72.84
35577;BME280;21680;52.400;16.920;2024-01-10T07:32:22;102564.95;;;-7.78;72.72
35577;BME280;21680;52.400;16.920;2024-01-10T07:34:48;102568.34;;;-7.77;72.74
35577;BME280;21680;52.400;16.920;2024-01-10T07:37:13;102568.91;;;-7.76;72.72
35577;BME280;21680;52.400;16.920;2024-01-10T07:39:42;102569.20;;;-7.74;72.80
35577;BME280;21680;52.400;16.920;2024-01-10T07:42:07;102565.45;;;-7.73;72.96
35577;BME280;21680;52.400;16.920;2024-01-10T07:44:32;102567.29;;;-7.72;72.85
35577;BME280;21680;52.400;16.920;2024-01-10T07:46:58;102574.09;;;-7.71;73.01
35577;BME280;21680;52.400;16.920;2024-01-10T07:49:23;102571.11;;;-7.72;72.78
35577;BME280;21680;52.400;16.920;2024-01-10T07:51:49;102568.70;;;-7.71;72.73
35577;BME280;21680;52.400;16.920;2024-01-10T07:54:15;102574.34;;;-7.70;72.92
35577;BME280;21680;52.400;16.920;2024-01-10T07:56:40;102575.11;;;-7.69;72.92
35577;BME280;21680;52.400;16.920;2024-01-10T07:59:06;102582.84;;;-7.67;72.94
35577;BME280;21680;52.400;16.920;2024-01-10T08:01:32;102584.00;;;-7.65;73.04
35577;BME280;21680;52.400;16.920;2024-01-10T08:03:57;102584.35;;;-7.63;72.98
35577;BME280;21680;52.400;16.920;2024-01-10T08:06:22;102588.56;;;-7.59;73.04
35577;BME280;21680;52.400;16.920;2024-01-10T08:08:48;102590.11;;;-7.56;72.96
35577;BME280;21680;52.400;16.920;2024-01-10T08:11:13;102591.16;;;-7.54;73.01
35577;BME280;21680;52.400;16.920;2024-01-10T08:13:38;102594.52;;;-7.49;73.11
35577;BME280;21680;52.400;16.920;2024-01-10T08:16:05;102597.35;;;-7.45;73.08
35577;BME280;21680;52.400;16.920;2024-01-10T08:18:34;102599.50;;;-7.45;73.03
35577;BME280;21680;52.400;16.920;2024-01-10T08:20:59;102603.88;;;-7.41;72.95
35577;BME280;21680;52.400;16.920;2024-01-10T08:23:25;102611.29;;;-7.39;73.03
35577;BME280;21680;52.400;16.920;2024-01-10T08:25:50;102618.61;;;-7.39;73.02
35577;BME280;21680;52.400;16.920;2024-01-10T08:28:15;102619.38;;;-7.37;73.17
35577;BME280;21680;52.400;16.920;2024-01-10T08:30:43;102616.84;;;-7.39;72.96
35577;BME280;21680;52.400;16.920;2024-01-10T08:33:09;102615.45;;;-7.39;73.00
35577;BME280;21680;52.400;16.920;2024-01-10T08:35:34;102614.52;;;-7.40;73.18
35577;BME280;21680;52.400;16.920;2024-01-10T08:37:59;102611.64;;;-7.39;73.01
35577;BME280;21680;52.400;16.920;2024-01-10T08:40:24;102611.14;;;-7.39;72.98
35577;BME280;21680;52.400;16.920;2024-01-10T08:42:52;102609.92;;;-7.39;72.90
35577;BME280;21680;52.400;16.920;2024-01-10T08:45:17;102617.17;;;-7.39;73.05
35577;BME280;21680;52.400;16.920;2024-01-10T08:47:42;102616.25;;;-7.40;72.91
35577;BME280;21680;52.400;16.920;2024-01-10T08:50:09;102618.64;;;-7.41;72.97
35577;BME280;21680;52.400;16.920;2024-01-10T08:52:35;102617.41;;;-7.41;72.88
35577;BME280;21680;52.400;16.920;2024-01-10T08:55:04;102615.47;;;-7.39;72.77
35577;BME280;21680;52.400;16.920;2024-01-10T08:57:30;102612.37;;;-7.36;73.07
35577;BME280;21680;52.400;16.920;2024-01-10T08:59:55;102613.30;;;-7.32;73.12
35577;BME280;21680;52.400;16.920;2024-01-10T09:02:20;102613.60;;;-7.27;73.01
35577;BME280;21680;52.400;16.920;2024-01-10T09:04:48;102609.71;;;-7.22;73.10
35577;BME280;21680;52.400;16.920;2024-01-10T09:07:13;102606.23;;;-7.16;72.94
35577;BME280;21680;52.400;16.920;2024-01-10T09:09:38;102606.65;;;-7.09;73.24
35577;BME280;21680;52.400;16.920;2024-01-10T09:12:04;102604.19;;;-7.04;73.09
35577;BME280;21680;52.400;16.920;2024-01-10T09:14:30;102602.25;;;-6.99;73.15
35577;BME280;21680;52.400;16.920;2024-01-10T09:16:55;102600.69;;;-6.93;73.32
35577;BME280;21680;52.400;16.920;2024-01-10T09:19:20;102604.80;;;-6.88;73.18
35577;BME280;21680;52.400;16.920;2024-01-10T09:21:46;102602.31;;;-6.83;73.30
35577;BME280;21680;52.400;16.920;2024-01-10T09:24:11;102603.34;;;-6.77;73.29
35577;BME280;21680;52.400;16.920;2024-01-10T09:26:39;102603.30;;;-6.72;73.33
35577;BME280;21680;52.400;16.920;2024-01-10T09:29:06;102598.78;;;-6.66;73.51
35577;BME280;21680;52.400;16.920;2024-01-10T09:31:31;102599.73;;;-6.62;73.39
35577;BME280;21680;52.400;16.920;2024-01-10T09:33:56;102603.12;;;-6.57;73.36
35577;BME280;21680;52.400;16.920;2024-01-10T09:36:22;102605.46;;;-6.52;73.34
35577;BME280;21680;52.400;16.920;2024-01-10T09:38:47;102604.02;;;-6.47;73.25
35577;BME280;21680;52.400;16.920;2024-01-10T09:41:14;102602.14;;;-6.41;73.41
35577;BME280;21680;52.400;16.920;2024-01-10T09:43:39;102597.95;;;-6.38;73.19
35577;BME280;21680;52.400;16.920;2024-01-10T09:46:07;102599.11;;;-6.33;73.30
35577;BME280;21680;52.400;16.920;2024-01-10T09:48:32;102593.04;;;-6.29;73.31
35577;BME280;21680;52.400;16.920;2024-01-10T09:50:58;102589.33;;;-6.24;73.30
35577;BME280;21680;52.400;16.920;2024-01-10T09:53:25;102587.11;;;-6.23;73.13
35577;BME280;21680;52.400;16.920;2024-01-10T09:55:58;102587.79;;;-6.24;73.18
35577;BME280;21680;52.400;16.920;2024-01-10T09:58:25;102584.92;;;-6.25;73.16
35577;BME280;21680;52.400;16.920;2024-01-10T10:00:57;102580.49;;;-6.27;72.93
35577;BME280;21680;52.400;16.920;2024-01-10T10:03:25;102578.02;;;-6.24;73.12
35577;BME280;21680;52.400;16.920;2024-01-10T10:05:52;102572.52;;;-6.19;73.24
35577;BME280;21680;52.400;16.920;2024-01-10T10:08:17;102575.60;;;-6.17;73.26
35577;BME280;21680;52.400;16.920;2024-01-10T10:10:49;102572.30;;;-6.17;73.12
35577;BME280;21680;52.400;16.920;2024-01-10T10:13:43;102570.39;;;-6.14;73.03
35577;BME280;21680;52.400;16.920;2024-01-10T10:16:14;102574.84;;;-6.12;73.09
35577;BME280;21680;52.400;16.920;2024-01-10T10:18:51;102576.20;;;-6.13;72.93
35577;BME280;21680;52.400;16.920;2024-01-10T10:21:19;102570.50;;;-6.12;73.02
35577;BME280;21680;52.400;16.920;2024-01-10T10:23:59;102569.43;;;-6.10;72.92
35577;BME280;21680;52.400;16.920;2024-01-10T10:26:26;102571.84;;;-6.07;73.07
35577;BME280;21680;52.400;16.920;2024-01-10T10:28:52;102575.60;;;-6.08;72.99
35577;BME280;21680;52.400;16.920;2024-01-10T10:31:23;102581.84;;;-6.05;73.20
35577;BME280;21680;52.400;16.920;2024-01-10T10:33:52;102574.92;;;-6.01;72.96
35577;BME280;21680;52.400;16.920;2024-01-10T10:36:18;102564.56;;;-5.97;72.89
35577;BME280;21680;52.400;16.920;2024-01-10T10:38:46;102556.24;;;-5.93;72.80
35577;BME280;21680;52.400;16.920;2024-01-10T10:41:15;102554.10;;;-5.87;73.04
35577;BME280;21680;52.400;16.920;2024-01-10T10:43:41;102557.12;;;-5.73;73.05
35577;BME280;21680;52.400;16.920;2024-01-10T10:46:09;102551.02;;;-5.64;73.16
35577;BME280;21680;52.400;16.920;2024-01-10T10:48:39;102547.60;;;-5.55;72.96
35577;BME280;21680;52.400;16.920;2024-01-10T10:51:10;102544.85;;;-5.51;73.08
35577;BME280;21680;52.400;16.920;2024-01-10T10:53:37;102543.69;;;-5.47;73.09
35577;BME280;21680;52.400;16.920;2024-01-10T10:56:07;102541.98;;;-5.46;72.71
35577;BME280;21680;52.400;16.920;2024-01-10T10:58:44;102536.67;;;-5.41;72.81
35577;BME280;21680;52.400;16.920;2024-01-10T11:01:14;102534.76;;;-5.34;72.93
35577;BME280;21680;52.400;16.920;2024-01-10T11:03:41;102530.63;;;-5.30;72.76
35577;BME280;21680;52.400;16.920;2024-01-10T11:06:12;102526.30;;;-5.26;72.79
35577;BME280;21680;52.400;16.920;2024-01-10T11:08:47;102523.74;;;-5.21;72.69
35577;BME280;21680;52.400;16.920;2024-01-10T11:11:55;102523.80;;;-5.16;72.78
35577;BME280;21680;52.400;16.920;2024-01-10T11:23:23;102526.41;;;-5.09;72.36
35577;BME280;21680;52.400;16.920;2024-01-10T11:25:57;102523.81;;;-5.09;72.47
35577;BME280;21680;52.400;16.920;2024-01-10T11:28:25;102519.27;;;-5.09;72.48
35577;BME280;21680;52.400;16.920;2024-01-10T11:30:53;102518.27;;;-5.09;72.30
35577;BME280;21680;52.400;16.920;2024-01-10T11:33:26;102516.27;;;-5.03;72.26
35577;BME280;21680;52.400;16.920;2024-01-10T11:36:16;102511.02;;;-5.00;72.40
35577;BME280;21680;52.400;16.920;2024-01-10T11:41:30;102499.57;;;-4.96;72.50
35577;BME280;21680;52.400;16.920;2024-01-10T11:46:34;102486.35;;;-4.87;72.16
35577;BME280;21680;52.400;16.920;2024-01-10T11:48:59;102485.88;;;-4.83;71.94
35577;BME280;21680;52.400;16.920;2024-01-10T11:51:25;102484.68;;;-4.79;71.81
35577;BME280;21680;52.400;16.920;2024-01-10T11:53:50;102486.80;;;-4.78;71.89
35577;BME280;21680;52.400;16.920;2024-01-10T11:56:18;102489.36;;;-4.76;72.08
35577;BME280;21680;52.400;16.920;2024-01-10T11:58:54;102491.11;;;-4.72;72.03
35577;BME280;21680;52.400;16.920;2024-01-10T12:01:21;102486.40;;;-4.69;71.96
35577;BME280;21680;52.400;16.920;2024-01-10T12:03:51;102485.55;;;-4.68;71.60
35577;BME280;21680;52.400;16.920;2024-01-10T12:06:21;102484.64;;;-4.65;71.67
35577;BME280;21680;52.400;16.920;2024-01-10T12:08:54;102484.27;;;-4.66;71.85
35577;BME280;21680;52.400;16.920;2024-01-10T12:11:19;102476.73;;;-4.66;71.77
35577;BME280;21680;52.400;16.920;2024-01-10T12:13:46;102476.30;;;-4.65;71.77
35577;BME280;21680;52.400;16.920;2024-01-10T12:16:13;102465.76;;;-4.66;71.77
35577;BME280;21680;52.400;16.920;2024-01-10T12:18:39;102459.82;;;-4.63;71.60
35577;BME280;21680;52.400;16.920;2024-01-10T12:21:04;102458.60;;;-4.59;71.73
35577;BME280;21680;52.400;16.920;2024-01-10T12:23:31;102455.67;;;-4.58;71.54
35577;BME280;21680;52.400;16.920;2024-01-10T12:26:01;102453.81;;;-4.57;71.32
35577;BME280;21680;52.400;16.920;2024-01-10T12:28:27;102456.61;;;-4.53;71.71
35577;BME280;21680;52.400;16.920;2024-01-10T12:30:52;102454.94;;;-4.52;71.38
35577;BME280;21680;52.400;16.920;2024-01-10T12:33:22;102452.02;;;-4.50;71.31
35577;BME280;21680;52.400;16.920;2024-01-10T12:36:10;102452.75;;;-4.46;71.64
35577;BME280;21680;52.400;16.920;2024-01-10T12:38:37;102447.13;;;-4.43;71.32
35577;BME280;21680;52.400;16.920;2024-01-10T12:41:03;102445.24;;;-4.43;71.44
35577;BME280;21680;52.400;16.920;2024-01-10T12:43:30;102442.42;;;-4.39;71.30
35577;BME280;21680;52.400;16.920;2024-01-10T12:46:06;102439.54;;;-4.34;71.32
35577;BME280;21680;52.400;16.920;2024-01-10T12:48:32;102441.62;;;-4.27;71.22
35577;BME280;21680;52.400;16.920;2024-01-10T12:50:59;102443.04;;;-4.22;71.37
35577;BME280;21680;52.400;16.920;2024-01-10T12:53:38;102441.91;;;-4.20;70.96